createdAt,value
2022-10-16T00:01:08.779Z,100.00
2022-10-16T00:03:38.520Z,100.00
2022-10-16T00:06:07.769Z,100.00
2022-10-16T00:08:36.391Z,100.00
2022-10-16T00:11:06.040Z,100.00
2022-10-16T00:13:34.893Z,100.00
2022-10-16T00:16:03.759Z,100.00
2022-10-16T00:18:32.138Z,100.00
2022-10-16T00:21:06.339Z,100.00
2022-10-16T00:23:35.431Z,100.00
2022-10-16T00:26:05.678Z,100.00
2022-10-16T00:28:34.193Z,100.00
2022-10-16T00:31:05.868Z,100.00
2022-10-16T00:33:34.007Z,100.00
2022-10-16T00:36:02.479Z,100.00
2022-10-16T00:38:32.243Z,100.00
2022-10-16T00:41:00.532Z,100.00
2022-10-16T00:43:40.879Z,100.00
2022-10-16T00:46:14.740Z,100.00
2022-10-16T00:48:43.570Z,100.00
2022-10-16T00:51:11.680Z,100.00
2022-10-16T00:53:41.434Z,100.00
2022-10-16T00:56:09.914Z,100.00
2022-10-16T00:58:38.155Z,100.00
2022-10-16T01:01:06.574Z,100.00
2022-10-16T01:03:36.435Z,100.00
2022-10-16T01:06:19.208Z,100.00
2022-10-16T01:08:57.966Z,100.00
2022-10-16T01:11:32.258Z,100.00
2022-10-16T01:14:04.644Z,100.00
2022-10-16T01:16:38.243Z,100.00
2022-10-16T01:19:11.804Z,100.00
2022-10-16T01:21:42.714Z,100.00
2022-10-16T01:24:20.207Z,100.00
2022-10-16T01:27:10.874Z,100.00
2022-10-16T01:29:42.471Z,100.00
2022-10-16T01:32:14.099Z,100.00
2022-10-16T01:34:47.264Z,100.00
2022-10-16T01:37:18.459Z,100.00
2022-10-16T01:39:48.229Z,100.00
2022-10-16T01:42:20.536Z,100.00
2022-10-16T01:44:48.941Z,100.00
2022-10-16T01:47:18.150Z,100.00
2022-10-16T01:49:47.531Z,100.00
2022-10-16T01:52:18.378Z,100.00
2022-10-16T01:54:48.948Z,100.00
2022-10-16T01:57:19.006Z,100.00
2022-10-16T01:59:49.557Z,100.00
2022-10-16T02:02:18.300Z,100.00
2022-10-16T02:04:48.467Z,100.00
2022-10-16T02:07:16.709Z,100.00
2022-10-16T02:09:44.886Z,100.00
2022-10-16T02:12:21.846Z,100.00
2022-10-16T02:14:49.948Z,100.00
2022-10-16T02:17:19.369Z,100.00
2022-10-16T02:19:49.133Z,100.00
2022-10-16T02:22:20.425Z,100.00
2022-10-16T02:24:54.549Z,100.00
2022-10-16T02:27:28.047Z,100.00
2022-10-16T02:29:59.889Z,100.00
2022-10-16T02:32:33.211Z,100.00
2022-10-16T02:35:01.768Z,100.00
2022-10-16T02:37:30.778Z,100.00
2022-10-16T02:40:00.442Z,100.00
2022-10-16T02:42:36.128Z,100.00
2022-10-16T02:45:04.753Z,100.00
2022-10-16T02:47:32.838Z,100.00
2022-10-16T02:50:01.221Z,100.00
2022-10-16T02:52:29.843Z,100.00
2022-10-16T02:54:58.037Z,100.00
2022-10-16T02:57:26.496Z,100.00
2022-10-16T02:59:56.210Z,100.00
2022-10-16T03:02:24.308Z,100.00
2022-10-16T03:04:52.429Z,100.00
2022-10-16T03:07:20.487Z,100.00
2022-10-16T03:09:48.658Z,100.00
2022-10-16T03:12:16.762Z,100.00
2022-10-16T03:14:45.168Z,100.00
2022-10-16T03:17:17.862Z,100.00
2022-10-16T03:19:46.321Z,100.00
2022-10-16T03:22:15.015Z,100.00
2022-10-16T03:24:43.136Z,100.00
2022-10-16T03:27:11.185Z,100.00
2022-10-16T03:29:40.125Z,100.00
2022-10-16T03:32:08.227Z,100.00
2022-10-16T03:34:37.817Z,100.00
2022-10-16T03:37:06.068Z,100.00
2022-10-16T03:39:34.211Z,100.00
2022-10-16T03:42:02.319Z,100.00
2022-10-16T03:44:30.446Z,100.00
2022-10-16T03:46:58.598Z,100.00
2022-10-16T03:49:26.710Z,100.00
2022-10-16T03:51:56.227Z,100.00
2022-10-16T03:54:24.470Z,100.00
2022-10-16T03:56:52.551Z,100.00
2022-10-16T03:59:20.708Z,100.00
2022-10-16T04:01:48.827Z,100.00
2022-10-16T04:04:16.977Z,100.00
2022-10-16T04:06:45.310Z,100.00
2022-10-16T04:09:14.950Z,100.00
2022-10-16T04:11:43.117Z,100.00
2022-10-16T04:14:11.246Z,100.00
2022-10-16T04:16:39.377Z,100.00
2022-10-16T04:19:07.467Z,100.00
2022-10-16T04:21:35.827Z,100.00
2022-10-16T04:24:03.895Z,100.00
2022-10-16T04:26:34.233Z,100.00
2022-10-16T04:29:02.426Z,100.00
2022-10-16T04:31:30.508Z,100.00
2022-10-16T04:33:58.596Z,100.00
2022-10-16T04:36:29.132Z,100.00
2022-10-16T04:38:57.577Z,100.00
2022-10-16T04:41:25.816Z,100.00
2022-10-16T04:43:55.315Z,100.00
2022-10-16T04:46:23.431Z,100.00
2022-10-16T04:48:51.610Z,100.00
2022-10-16T04:51:20.068Z,100.00
2022-10-16T04:53:48.170Z,100.00
2022-10-16T04:56:17.058Z,100.00
2022-10-16T04:58:45.148Z,100.00
2022-10-16T05:01:14.722Z,100.00
2022-10-16T05:03:42.948Z,100.00
2022-10-16T05:06:11.028Z,100.00
2022-10-16T05:08:39.087Z,100.00
2022-10-16T05:11:07.435Z,100.00
2022-10-16T05:13:35.537Z,100.00
2022-10-16T05:16:03.668Z,100.00
2022-10-16T05:18:33.265Z,100.00
2022-10-16T05:21:01.427Z,100.00
2022-10-16T05:23:29.558Z,100.00
2022-10-16T05:25:59.461Z,100.00
2022-10-16T05:28:27.851Z,100.00
2022-10-16T05:30:56.163Z,100.00
2022-10-16T05:33:25.647Z,100.00
2022-10-16T05:35:55.130Z,100.00
2022-10-16T05:38:23.446Z,100.00
2022-10-16T05:40:54.707Z,100.00
2022-10-16T05:43:22.997Z,100.00
2022-10-16T05:45:57.495Z,100.00
2022-10-16T05:48:25.649Z,100.00
2022-10-16T05:51:01.029Z,100.00
2022-10-16T05:53:30.550Z,100.00
2022-10-16T05:55:59.055Z,100.00
2022-10-16T05:58:28.008Z,100.00
2022-10-16T06:00:57.470Z,100.00
2022-10-16T06:03:25.790Z,100.00
2022-10-16T06:05:54.108Z,100.00
2022-10-16T06:08:24.950Z,100.00
2022-10-16T06:11:03.120Z,100.00
2022-10-16T06:13:31.327Z,100.00
2022-10-16T06:15:59.889Z,100.00
2022-10-16T06:18:28.350Z,100.00
2022-10-16T06:20:56.681Z,100.00
2022-10-16T06:23:26.647Z,100.00
2022-10-16T06:25:54.787Z,100.00
2022-10-16T06:28:23.413Z,100.00
2022-10-16T06:30:51.548Z,100.00
2022-10-16T06:33:19.661Z,100.00
2022-10-16T06:35:47.786Z,100.00
2022-10-16T06:38:15.948Z,100.00
2022-10-16T06:40:45.490Z,100.00
2022-10-16T06:43:13.548Z,100.00
2022-10-16T06:45:41.770Z,100.00
2022-10-16T06:48:09.857Z,100.00
2022-10-16T06:50:37.968Z,100.00
2022-10-16T06:53:06.048Z,100.00
2022-10-16T06:55:34.177Z,100.00
2022-10-16T06:58:03.697Z,100.00
2022-10-16T07:00:32.060Z,100.00
2022-10-16T07:03:00.113Z,100.00
2022-10-16T07:05:28.287Z,100.00
2022-10-16T07:07:56.429Z,100.00
2022-10-16T07:10:25.432Z,100.00
2022-10-16T07:12:53.633Z,100.00
2022-10-16T07:15:23.262Z,100.00
2022-10-16T07:17:51.360Z,100.00
2022-10-16T07:20:19.836Z,100.00
2022-10-16T07:22:48.070Z,100.00
2022-10-16T07:25:16.248Z,100.00
2022-10-16T07:27:44.325Z,100.00
2022-10-16T07:30:12.907Z,100.00
2022-10-16T07:32:42.427Z,100.00
2022-10-16T07:35:11.461Z,100.00
2022-10-16T07:37:39.580Z,100.00
2022-10-16T07:40:09.087Z,100.00
2022-10-16T07:42:37.187Z,100.00
2022-10-16T07:45:06.137Z,100.00
2022-10-16T07:47:34.286Z,100.00
2022-10-16T07:50:03.857Z,100.00
2022-10-16T07:52:32.010Z,100.00
2022-10-16T07:55:00.248Z,100.00
2022-10-16T07:57:28.821Z,100.00
2022-10-16T07:59:57.228Z,100.00
2022-10-16T08:02:25.426Z,100.00
2022-10-16T08:04:53.510Z,100.00
2022-10-16T08:07:23.701Z,100.00
2022-10-16T08:09:52.657Z,100.00
2022-10-16T08:12:20.788Z,100.00
2022-10-16T08:14:49.560Z,100.00
2022-10-16T08:17:17.827Z,100.00
2022-10-16T08:19:47.996Z,100.00
2022-10-16T08:22:16.391Z,100.00
2022-10-16T08:24:47.539Z,100.00
2022-10-16T08:27:15.692Z,100.00
2022-10-16T08:29:43.883Z,100.00
2022-10-16T08:32:12.069Z,100.00
2022-10-16T08:34:40.282Z,100.00
2022-10-16T08:37:09.127Z,100.00
2022-10-16T08:39:37.397Z,100.00
2022-10-16T08:42:22.600Z,100.00
2022-10-16T08:45:32.915Z,100.00
2022-10-16T08:48:11.901Z,100.00
2022-10-16T08:50:42.127Z,100.00
2022-10-16T08:53:16.158Z,100.00
2022-10-16T08:55:46.249Z,100.00
2022-10-16T08:58:17.668Z,100.00
2022-10-16T09:00:49.324Z,100.00
2022-10-16T09:03:27.777Z,100.00
2022-10-16T09:06:18.316Z,100.00
2022-10-16T09:08:55.807Z,100.00
2022-10-16T09:11:28.421Z,100.00
2022-10-16T09:14:01.827Z,100.00
2022-10-16T09:16:32.720Z,100.00
2022-10-16T09:19:05.120Z,100.00
2022-10-16T09:21:34.747Z,100.00
2022-10-16T09:24:10.817Z,100.00
2022-10-16T09:26:39.378Z,100.00
2022-10-16T09:29:09.041Z,100.00
2022-10-16T09:31:38.833Z,100.00
2022-10-16T09:34:09.440Z,100.00
2022-10-16T09:36:42.969Z,100.00
2022-10-16T09:39:12.941Z,100.00
2022-10-16T09:41:43.049Z,100.00
2022-10-16T09:44:22.086Z,100.00
2022-10-16T09:46:50.177Z,100.00
2022-10-16T09:49:25.487Z,100.00
2022-10-16T09:52:04.810Z,100.00
2022-10-16T09:54:33.011Z,100.00
2022-10-16T09:57:07.952Z,100.00
2022-10-16T09:59:48.364Z,100.00
2022-10-16T10:02:18.127Z,100.00
2022-10-16T10:04:51.867Z,100.00
2022-10-16T10:07:21.555Z,100.00
2022-10-16T10:09:49.860Z,100.00
2022-10-16T10:12:24.473Z,100.00
2022-10-16T10:14:58.307Z,100.00
2022-10-16T10:17:27.539Z,99.31
2022-10-16T10:19:57.177Z,98.88
2022-10-16T10:22:33.715Z,97.48
2022-10-16T10:25:22.148Z,93.87
2022-10-16T10:28:06.458Z,92.79
2022-10-16T10:30:39.751Z,95.62
2022-10-16T10:33:25.710Z,90.08
2022-10-16T10:35:59.211Z,85.79
2022-10-16T10:38:35.265Z,84.39
2022-10-16T10:41:15.430Z,84.96
2022-10-16T10:43:55.250Z,84.47
2022-10-16T10:46:31.267Z,85.62
2022-10-16T10:49:19.037Z,90.89
2022-10-16T10:51:55.007Z,90.02
2022-10-16T10:54:29.166Z,90.90
2022-10-16T10:57:00.717Z,93.70
2022-10-16T10:59:43.425Z,92.97
2022-10-16T11:02:19.867Z,93.86
2022-10-16T11:05:08.579Z,95.95
2022-10-16T11:07:40.398Z,92.55
2022-10-16T11:10:15.482Z,93.08
2022-10-16T11:12:45.489Z,92.33
2022-10-16T11:15:17.308Z,93.98
2022-10-16T11:17:50.944Z,91.56
2022-10-16T11:20:22.599Z,92.26
2022-10-16T11:22:54.000Z,94.70
2022-10-16T11:25:25.668Z,93.57
2022-10-16T11:27:57.728Z,95.29
2022-10-16T11:30:27.792Z,94.08
2022-10-16T11:33:22.788Z,94.09
2022-10-16T11:35:55.197Z,94.19
2022-10-16T11:38:30.077Z,93.71
2022-10-16T11:41:01.800Z,90.86
2022-10-16T11:43:34.210Z,90.96
2022-10-16T11:46:09.240Z,89.60
2022-10-16T11:48:44.448Z,89.99
2022-10-16T11:51:18.143Z,89.40
2022-10-16T11:53:49.870Z,90.86
2022-10-16T11:56:20.482Z,92.59
2022-10-16T11:58:56.286Z,89.71
2022-10-16T12:01:30.600Z,91.60
2022-10-16T12:04:19.938Z,90.25
2022-10-16T12:06:50.870Z,93.36
2022-10-16T12:09:24.467Z,93.02
2022-10-16T12:11:52.686Z,91.87
2022-10-16T12:14:24.507Z,91.60
2022-10-16T12:16:57.907Z,88.32
2022-10-16T12:19:28.426Z,85.17
2022-10-16T12:21:58.748Z,84.53
2022-10-16T12:24:36.722Z,85.15
2022-10-16T12:27:06.628Z,83.45
2022-10-16T12:29:37.570Z,86.23
2022-10-16T12:32:09.257Z,84.19
2022-10-16T12:34:41.987Z,87.27
2022-10-16T12:37:13.347Z,90.68
2022-10-16T12:39:41.607Z,90.98
2022-10-16T12:42:23.777Z,92.19
2022-10-16T12:44:52.097Z,81.72
2022-10-16T12:47:39.476Z,71.93
2022-10-16T12:50:31.855Z,67.55
2022-10-16T12:53:00.153Z,63.56
2022-10-16T12:55:29.538Z,61.05
2022-10-16T12:58:09.275Z,58.08
2022-10-16T13:00:45.415Z,58.02
2022-10-16T13:03:49.417Z,56.61
2022-10-16T13:06:26.511Z,55.12
2022-10-16T13:09:07.929Z,53.83
2022-10-16T13:12:09.757Z,54.14
2022-10-16T13:14:57.505Z,52.96
2022-10-16T13:17:29.649Z,52.83
2022-10-16T13:20:04.746Z,51.39
2022-10-16T13:22:40.090Z,51.50
2022-10-16T13:25:20.721Z,51.50
2022-10-16T13:27:54.218Z,53.73
2022-10-16T13:30:28.199Z,51.74
2022-10-16T13:33:02.427Z,50.82
2022-10-16T13:35:32.488Z,50.12
2022-10-16T13:38:14.804Z,51.43
2022-10-16T13:40:54.268Z,51.34
2022-10-16T13:43:25.161Z,52.45
2022-10-16T13:46:02.960Z,48.62
2022-10-16T13:48:31.761Z,49.22
2022-10-16T13:51:08.841Z,51.12
2022-10-16T13:53:38.848Z,49.75
2022-10-16T13:56:09.512Z,49.54
2022-10-16T13:58:37.811Z,50.30
2022-10-16T14:01:07.831Z,49.39
2022-10-16T14:03:37.489Z,51.79
2022-10-16T14:06:07.038Z,49.99
2022-10-16T14:08:35.351Z,50.48
2022-10-16T14:11:04.965Z,50.21
2022-10-16T14:13:39.011Z,51.00
2022-10-16T14:16:10.229Z,50.81
2022-10-16T14:18:40.187Z,49.46
2022-10-16T14:21:10.612Z,49.13
2022-10-16T14:23:40.483Z,49.26
2022-10-16T14:26:15.466Z,51.09
2022-10-16T14:28:44.376Z,53.26
2022-10-16T14:31:29.900Z,54.01
2022-10-16T14:33:58.578Z,56.59
2022-10-16T14:36:27.795Z,59.00
2022-10-16T14:39:04.871Z,61.67
2022-10-16T14:41:36.128Z,64.20
2022-10-16T14:44:06.464Z,65.40
2022-10-16T14:46:37.328Z,67.90
2022-10-16T14:49:14.900Z,69.92
2022-10-16T14:51:45.909Z,72.05
2022-10-16T14:54:14.738Z,71.93
2022-10-16T14:56:50.250Z,73.10
2022-10-16T14:59:21.427Z,75.67
2022-10-16T15:01:49.787Z,78.23
2022-10-16T15:04:18.887Z,81.09
2022-10-16T15:06:47.269Z,82.14
2022-10-16T15:09:15.468Z,83.14
2022-10-16T15:11:44.070Z,84.35
2022-10-16T15:16:48.279Z,86.23
2022-10-16T15:19:16.429Z,87.44
2022-10-16T15:21:45.378Z,90.14
2022-10-16T15:24:17.818Z,92.10
2022-10-16T15:26:49.926Z,93.78
2022-10-16T15:29:19.568Z,96.50
2022-10-16T15:31:48.619Z,98.74
2022-10-16T15:34:17.367Z,100.00
2022-10-16T15:36:45.487Z,100.00
2022-10-16T15:39:15.758Z,100.00
2022-10-16T15:41:44.505Z,100.00
2022-10-16T15:44:12.737Z,100.00
2022-10-16T15:46:42.628Z,100.00
2022-10-16T15:49:11.651Z,100.00
2022-10-16T15:51:41.468Z,100.00
2022-10-16T15:54:11.475Z,100.00
2022-10-16T15:56:39.856Z,100.00
2022-10-16T15:59:08.288Z,100.00
2022-10-16T16:01:36.980Z,100.00
2022-10-16T16:04:15.387Z,100.00
2022-10-16T16:06:54.031Z,100.00
2022-10-16T16:09:22.347Z,100.00
2022-10-16T16:11:53.488Z,100.00
2022-10-16T16:14:21.665Z,100.00
2022-10-16T16:16:50.278Z,100.00
2022-10-16T16:19:22.074Z,100.00
2022-10-16T16:21:50.469Z,100.00
2022-10-16T16:24:19.044Z,100.00
2022-10-16T16:26:47.259Z,100.00
2022-10-16T16:29:16.998Z,100.00
2022-10-16T16:31:45.315Z,100.00
2022-10-16T16:34:14.051Z,100.00
2022-10-16T16:36:43.522Z,100.00
2022-10-16T16:39:12.218Z,100.00
2022-10-16T16:41:40.327Z,100.00
2022-10-16T16:44:09.839Z,100.00
2022-10-16T16:46:38.162Z,100.00
2022-10-16T16:49:07.138Z,100.00
2022-10-16T16:51:38.310Z,100.00
2022-10-16T16:54:10.328Z,100.00
2022-10-16T16:56:39.138Z,100.00
2022-10-16T16:59:07.295Z,100.00
2022-10-16T17:01:35.481Z,100.00
2022-10-16T17:04:03.845Z,100.00
2022-10-16T17:06:32.227Z,100.00
2022-10-16T17:09:00.690Z,100.00
2022-10-16T17:11:31.594Z,100.00
2022-10-16T17:14:00.500Z,100.00
2022-10-16T17:16:30.638Z,100.00
2022-10-16T17:19:01.871Z,100.00
2022-10-16T17:21:30.793Z,100.00
2022-10-16T17:23:59.035Z,100.00
2022-10-16T17:26:27.247Z,100.00
2022-10-16T17:28:58.116Z,100.00
2022-10-16T17:31:28.837Z,100.00
2022-10-16T17:33:57.040Z,100.00
2022-10-16T17:36:25.692Z,100.00
2022-10-16T17:38:53.855Z,100.00
2022-10-16T17:41:23.707Z,100.00
2022-10-16T17:43:52.987Z,100.00
2022-10-16T17:46:24.216Z,100.00
2022-10-16T17:48:54.641Z,100.00
2022-10-16T17:51:24.945Z,100.00
2022-10-16T17:53:53.975Z,100.00
2022-10-16T17:56:22.720Z,100.00
2022-10-16T17:58:51.936Z,100.00
2022-10-16T18:01:24.281Z,100.00
2022-10-16T18:03:53.165Z,100.00
2022-10-16T18:06:22.707Z,100.00
2022-10-16T18:08:51.669Z,100.00
2022-10-16T18:11:20.269Z,100.00
2022-10-16T18:13:48.621Z,100.00
2022-10-16T18:16:17.270Z,100.00
2022-10-16T18:18:47.188Z,100.00
2022-10-16T18:21:18.173Z,100.00
2022-10-16T18:23:50.930Z,100.00
2022-10-16T18:26:21.556Z,100.00
2022-10-16T18:28:51.045Z,100.00
2022-10-16T18:31:19.417Z,100.00
2022-10-16T18:33:50.746Z,100.00
2022-10-16T18:36:20.370Z,100.00
2022-10-16T18:38:48.440Z,100.00
2022-10-16T18:41:16.652Z,100.00
2022-10-16T18:43:44.718Z,100.00
2022-10-16T18:46:15.037Z,100.00
2022-10-16T18:48:43.689Z,100.00
2022-10-16T18:51:15.051Z,100.00
2022-10-16T18:53:44.343Z,100.00
2022-10-16T18:56:14.252Z,100.00
2022-10-16T18:58:43.360Z,100.00
2022-10-16T19:01:16.308Z,100.00
2022-10-16T19:03:45.034Z,100.00
2022-10-16T19:06:16.639Z,100.00
2022-10-16T19:08:45.309Z,100.00
2022-10-16T19:11:15.219Z,100.00
2022-10-16T19:13:43.516Z,100.00
2022-10-16T19:16:21.955Z,100.00
2022-10-16T19:18:50.552Z,100.00
2022-10-16T19:21:20.586Z,100.00
2022-10-16T19:23:50.921Z,100.00
2022-10-16T19:26:20.005Z,100.00
2022-10-16T19:28:48.278Z,100.00
2022-10-16T19:31:18.636Z,100.00
2022-10-16T19:33:47.547Z,100.00
2022-10-16T19:36:17.303Z,100.00
2022-10-16T19:38:47.858Z,100.00
2022-10-16T19:41:17.618Z,100.00
2022-10-16T19:43:46.639Z,100.00
2022-10-16T19:46:16.248Z,100.00
2022-10-16T19:48:44.622Z,100.00
2022-10-16T19:51:14.868Z,100.00
2022-10-16T19:53:42.993Z,100.00
2022-10-16T19:56:16.991Z,100.00
2022-10-16T19:58:45.668Z,100.00
2022-10-16T20:01:14.533Z,100.00
2022-10-16T20:03:44.391Z,100.00
2022-10-16T20:06:12.750Z,100.00
2022-10-16T20:08:41.839Z,100.00
2022-10-16T20:11:14.131Z,100.00
2022-10-16T20:13:44.398Z,100.00
2022-10-16T20:16:13.935Z,100.00
2022-10-16T20:18:42.658Z,100.00
2022-10-16T20:21:11.581Z,100.00
2022-10-16T20:23:39.971Z,100.00
2022-10-16T20:26:11.565Z,100.00
2022-10-16T20:28:41.671Z,100.00
2022-10-16T20:31:12.560Z,100.00
2022-10-16T20:33:41.668Z,100.00
2022-10-16T20:36:12.517Z,100.00
2022-10-16T20:38:40.687Z,100.00
2022-10-16T20:41:09.810Z,100.00
2022-10-16T20:43:41.155Z,100.00
2022-10-16T20:46:14.439Z,100.00
2022-10-16T20:48:46.816Z,100.00
2022-10-16T20:51:17.387Z,100.00
2022-10-16T20:53:46.637Z,100.00
2022-10-16T20:56:15.939Z,100.00
2022-10-16T20:58:44.060Z,100.00
2022-10-16T21:01:15.404Z,100.00
2022-10-16T21:03:43.831Z,100.00
2022-10-16T21:06:12.887Z,100.00
2022-10-16T21:08:43.582Z,100.00
2022-10-16T21:11:13.287Z,100.00
2022-10-16T21:13:41.408Z,100.00
2022-10-16T21:16:10.389Z,100.00
2022-10-16T21:18:44.171Z,100.00
2022-10-16T21:21:20.049Z,100.00
2022-10-16T21:23:48.348Z,100.00
2022-10-16T21:26:16.448Z,100.00
2022-10-16T21:28:44.611Z,100.00
2022-10-16T21:31:15.383Z,100.00
2022-10-16T21:33:44.909Z,100.00
2022-10-16T21:36:17.497Z,100.00
2022-10-16T21:41:19.547Z,100.00
2022-10-16T21:43:48.168Z,100.00
2022-10-16T21:46:17.316Z,100.00
2022-10-16T21:48:47.341Z,100.00
2022-10-16T21:51:16.661Z,100.00
2022-10-16T21:53:44.848Z,100.00
2022-10-16T21:56:16.903Z,100.00
2022-10-16T21:58:45.787Z,100.00
2022-10-16T22:01:16.071Z,100.00
2022-10-16T22:03:44.308Z,100.00
2022-10-16T22:06:14.957Z,100.00
2022-10-16T22:08:43.627Z,100.00
2022-10-16T22:11:13.909Z,100.00
2022-10-16T22:13:42.307Z,100.00
2022-10-16T22:16:11.642Z,100.00
2022-10-16T22:18:40.994Z,100.00
2022-10-16T22:21:10.607Z,100.00
2022-10-16T22:23:48.925Z,100.00
2022-10-16T22:26:17.329Z,100.00
2022-10-16T22:28:45.602Z,100.00
2022-10-16T22:31:15.916Z,100.00
2022-10-16T22:33:44.391Z,100.00
2022-10-16T22:36:14.230Z,100.00
2022-10-16T22:38:44.207Z,100.00
2022-10-16T22:41:13.687Z,100.00
2022-10-16T22:43:44.132Z,100.00
2022-10-16T22:46:13.848Z,100.00
2022-10-16T22:48:42.328Z,100.00
2022-10-16T22:51:15.741Z,100.00
2022-10-16T22:53:47.492Z,100.00
2022-10-16T22:56:16.407Z,100.00
2022-10-16T22:58:44.557Z,100.00
2022-10-16T23:01:15.242Z,100.00
2022-10-16T23:03:43.367Z,100.00
2022-10-16T23:06:11.702Z,100.00
2022-10-16T23:08:40.047Z,100.00
2022-10-16T23:11:11.085Z,100.00
2022-10-16T23:13:39.548Z,100.00
2022-10-16T23:16:08.690Z,100.00
2022-10-16T23:18:37.516Z,100.00
2022-10-16T23:21:09.998Z,100.00
2022-10-16T23:23:39.148Z,100.00
2022-10-16T23:26:12.197Z,100.00
2022-10-16T23:28:40.505Z,100.00
2022-10-16T23:31:09.627Z,100.00
2022-10-16T23:33:38.587Z,100.00
2022-10-16T23:36:08.538Z,100.00
2022-10-16T23:38:36.711Z,100.00
2022-10-16T23:41:05.147Z,100.00
2022-10-16T23:43:35.489Z,100.00
2022-10-16T23:46:03.887Z,100.00
2022-10-16T23:48:31.948Z,100.00
2022-10-16T23:50:59.997Z,100.00
2022-10-16T23:53:28.387Z,100.00
2022-10-16T23:55:56.501Z,100.00
2022-10-16T23:58:24.647Z,100.00
